sensor_id;sensor_type;location;lat;lon;timestamp;P1;durP1;ratioP1;P2;durP2;ratioP2
72085;SDS011;64750;52.134;5.424;2023-02-24T00:01:47;4.03;;;2.05;;
72085;SDS011;64750;52.134;5.424;2023-02-24T00:04:18;7.90;;;2.60;;
72085;SDS011;64750;52.134;5.424;2023-02-24T00:06:46;2.97;;;1.63;;
72085;SDS011;64750;52.134;5.424;2023-02-24T00:09:14;5.70;;;1.90;;
72085;SDS011;64750;52.134;5.424;2023-02-24T00:11:44;8.05;;;2.15;;
72085;SDS011;64750;52.134;5.424;2023-02-24T00:14:14;3.83;;;1.73;;
72085;SDS011;64750;52.134;5.424;2023-02-24T00:16:45;4.93;;;1.33;;
72085;SDS011;64750;52.134;5.424;2023-02-24T00:19:13;10.27;;;1.92;;
72085;SDS011;64750;52.134;5.424;2023-02-24T00:21:42;6.57;;;1.75;;
72085;SDS011;64750;52.134;5.424;2023-02-24T00:24:10;10.18;;;1.75;;
72085;SDS011;64750;52.134;5.424;2023-02-24T00:26:37;6.88;;;1.73;;
72085;SDS011;64750;52.134;5.424;2023-02-24T00:29:05;7.60;;;1.93;;
72085;SDS011;64750;52.134;5.424;2023-02-24T00:31:34;6.03;;;2.15;;
72085;SDS011;64750;52.134;5.424;2023-02-24T00:34:05;5.00;;;1.70;;
72085;SDS011;64750;52.134;5.424;2023-02-24T00:36:32;6.57;;;1.40;;
72085;SDS011;64750;52.134;5.424;2023-02-24T00:39:01;4.50;;;1.90;;
72085;SDS011;64750;52.134;5.424;2023-02-24T00:41:37;7.93;;;1.50;;
72085;SDS011;64750;52.134;5.424;2023-02-24T00:44:07;7.72;;;1.70;;
72085;SDS011;64750;52.134;5.424;2023-02-24T00:46:38;7.90;;;1.70;;
72085;SDS011;64750;52.134;5.424;2023-02-24T00:49:08;8.13;;;1.40;;
72085;SDS011;64750;52.134;5.424;2023-02-24T00:51:39;3.75;;;1.38;;
72085;SDS011;64750;52.134;5.424;2023-02-24T00:54:07;4.23;;;1.13;;
72085;SDS011;64750;52.134;5.424;2023-02-24T00:56:35;6.82;;;1.27;;
72085;SDS011;64750;52.134;5.424;2023-02-24T00:59:02;7.75;;;1.38;;
72085;SDS011;64750;52.134;5.424;2023-02-24T01:01:30;4.68;;;1.40;;
72085;SDS011;64750;52.134;5.424;2023-02-24T01:03:58;5.45;;;1.33;;
72085;SDS011;64750;52.134;5.424;2023-02-24T01:06:31;9.70;;;1.30;;
72085;SDS011;64750;52.134;5.424;2023-02-24T01:08:59;7.18;;;1.35;;
72085;SDS011;64750;52.134;5.424;2023-02-24T01:11:27;4.50;;;1.00;;
72085;SDS011;64750;52.134;5.424;2023-02-24T01:14:17;7.18;;;1.20;;
72085;SDS011;64750;52.134;5.424;2023-02-24T01:16:46;2.47;;;0.93;;
72085;SDS011;64750;52.134;5.424;2023-02-24T01:19:18;9.83;;;1.20;;
72085;SDS011;64750;52.134;5.424;2023-02-24T01:21:47;4.47;;;1.00;;
72085;SDS011;64750;52.134;5.424;2023-02-24T01:24:20;6.25;;;1.40;;
72085;SDS011;64750;52.134;5.424;2023-02-24T01:26:48;1.48;;;0.77;;
72085;SDS011;64750;52.134;5.424;2023-02-24T01:29:15;1.80;;;0.90;;
72085;SDS011;64750;52.134;5.424;2023-02-24T01:31:41;3.93;;;0.90;;
72085;SDS011;64750;52.134;5.424;2023-02-24T01:34:09;5.65;;;1.40;;
72085;SDS011;64750;52.134;5.424;2023-02-24T01:36:36;3.72;;;1.00;;
72085;SDS011;64750;52.134;5.424;2023-02-24T01:39:05;2.83;;;0.95;;
72085;SDS011;64750;52.134;5.424;2023-02-24T01:41:36;3.65;;;1.23;;
72085;SDS011;64750;52.134;5.424;2023-02-24T01:44:06;5.27;;;1.10;;
72085;SDS011;64750;52.134;5.424;2023-02-24T01:46:40;5.05;;;1.10;;
72085;SDS011;64750;52.134;5.424;2023-02-24T01:49:09;5.82;;;1.30;;
72085;SDS011;64750;52.134;5.424;2023-02-24T01:51:53;6.60;;;1.30;;
72085;SDS011;64750;52.134;5.424;2023-02-24T01:54:24;3.75;;;0.70;;
72085;SDS011;64750;52.134;5.424;2023-02-24T01:56:55;3.77;;;1.00;;
72085;SDS011;64750;52.134;5.424;2023-02-24T01:59:23;7.45;;;1.20;;
72085;SDS011;64750;52.134;5.424;2023-02-24T02:01:54;4.78;;;1.30;;
72085;SDS011;64750;52.134;5.424;2023-02-24T02:04:28;4.35;;;1.00;;
72085;SDS011;64750;52.134;5.424;2023-02-24T02:07:01;7.82;;;1.40;;
72085;SDS011;64750;52.134;5.424;2023-02-24T02:09:28;3.10;;;1.10;;
72085;SDS011;64750;52.134;5.424;2023-02-24T02:11:54;4.90;;;1.20;;
72085;SDS011;64750;52.134;5.424;2023-02-24T02:14:21;3.70;;;1.17;;
72085;SDS011;64750;52.134;5.424;2023-02-24T02:17:05;4.30;;;1.20;;
72085;SDS011;64750;52.134;5.424;2023-02-24T02:25:35;4.60;;;1.13;;
72085;SDS011;64750;52.134;5.424;2023-02-24T02:31:05;6.38;;;1.13;;
72085;SDS011;64750;52.134;5.424;2023-02-24T02:34:15;9.48;;;1.42;;
72085;SDS011;64750;52.134;5.424;2023-02-24T02:42:00;7.60;;;2.03;;
72085;SDS011;64750;52.134;5.424;2023-02-24T02:44:59;3.85;;;1.20;;
72085;SDS011;64750;52.134;5.424;2023-02-24T02:47:38;7.30;;;1.65;;
72085;SDS011;64750;52.134;5.424;2023-02-24T02:50:18;5.63;;;1.53;;
72085;SDS011;64750;52.134;5.424;2023-02-24T02:53:12;6.90;;;1.50;;
72085;SDS011;64750;52.134;5.424;2023-02-24T02:55:45;5.25;;;1.80;;
72085;SDS011;64750;52.134;5.424;2023-02-24T02:58:16;5.85;;;1.20;;
72085;SDS011;64750;52.134;5.424;2023-02-24T03:00:51;6.43;;;1.40;;
72085;SDS011;64750;52.134;5.424;2023-02-24T03:03:42;8.07;;;1.90;;
72085;SDS011;64750;52.134;5.424;2023-02-24T03:06:15;8.32;;;1.60;;
72085;SDS011;64750;52.134;5.424;2023-02-24T03:08:49;4.53;;;1.70;;
72085;SDS011;64750;52.134;5.424;2023-02-24T03:11:20;7.10;;;1.75;;
72085;SDS011;64750;52.134;5.424;2023-02-24T03:13:48;8.30;;;1.55;;
72085;SDS011;64750;52.134;5.424;2023-02-24T03:16:19;7.63;;;1.50;;
72085;SDS011;64750;52.134;5.424;2023-02-24T03:18:49;6.65;;;2.00;;
72085;SDS011;64750;52.134;5.424;2023-02-24T03:21:26;9.15;;;1.77;;
72085;SDS011;64750;52.134;5.424;2023-02-24T03:23:58;7.35;;;1.92;;
72085;SDS011;64750;52.134;5.424;2023-02-24T03:26:29;4.72;;;2.45;;
72085;SDS011;64750;52.134;5.424;2023-02-24T03:31:41;4.22;;;1.73;;
72085;SDS011;64750;52.134;5.424;2023-02-24T03:34:14;7.00;;;2.13;;
72085;SDS011;64750;52.134;5.424;2023-02-24T03:36:42;7.68;;;1.90;;
72085;SDS011;64750;52.134;5.424;2023-02-24T03:39:09;8.10;;;2.47;;
72085;SDS011;64750;52.134;5.424;2023-02-24T03:44:26;2.42;;;1.27;;
72085;SDS011;64750;52.134;5.424;2023-02-24T03:46:54;10.75;;;1.90;;
72085;SDS011;64750;52.134;5.424;2023-02-24T03:49:21;7.15;;;1.50;;
72085;SDS011;64750;52.134;5.424;2023-02-24T03:52:16;6.32;;;1.73;;
72085;SDS011;64750;52.134;5.424;2023-02-24T04:00:27;11.07;;;2.00;;
72085;SDS011;64750;52.134;5.424;2023-02-24T04:11:38;4.85;;;1.67;;
72085;SDS011;64750;52.134;5.424;2023-02-24T04:14:23;5.53;;;1.50;;
72085;SDS011;64750;52.134;5.424;2023-02-24T04:17:01;12.25;;;2.05;;
72085;SDS011;64750;52.134;5.424;2023-02-24T04:19:34;5.85;;;1.50;;
72085;SDS011;64750;52.134;5.424;2023-02-24T04:22:05;7.03;;;1.70;;
72085;SDS011;64750;52.134;5.424;2023-02-24T04:24:37;4.68;;;1.40;;
72085;SDS011;64750;52.134;5.424;2023-02-24T04:27:08;3.88;;;1.35;;
72085;SDS011;64750;52.134;5.424;2023-02-24T04:29:42;4.97;;;1.20;;
72085;SDS011;64750;52.134;5.424;2023-02-24T04:32:15;5.60;;;1.45;;
72085;SDS011;64750;52.134;5.424;2023-02-24T04:34:46;8.37;;;1.50;;
72085;SDS011;64750;52.134;5.424;2023-02-24T04:37:12;5.65;;;1.40;;
72085;SDS011;64750;52.134;5.424;2023-02-24T04:39:39;4.78;;;1.50;;
72085;SDS011;64750;52.134;5.424;2023-02-24T04:42:05;6.43;;;1.92;;
72085;SDS011;64750;52.134;5.424;2023-02-24T04:44:32;8.07;;;1.42;;
72085;SDS011;64750;52.134;5.424;2023-02-24T04:46:58;9.13;;;1.70;;
72085;SDS011;64750;52.134;5.424;2023-02-24T04:49:25;5.70;;;1.38;;
72085;SDS011;64750;52.134;5.424;2023-02-24T04:51:52;5.72;;;1.02;;
72085;SDS011;64750;52.134;5.424;2023-02-24T04:54:19;2.67;;;1.38;;
72085;SDS011;64750;52.134;5.424;2023-02-24T04:56:46;7.65;;;2.47;;
72085;SDS011;64750;52.134;5.424;2023-02-24T04:59:19;3.47;;;1.00;;
72085;SDS011;64750;52.134;5.424;2023-02-24T05:01:47;6.75;;;1.45;;
72085;SDS011;64750;52.134;5.424;2023-02-24T05:04:16;6.30;;;1.38;;
72085;SDS011;64750;52.134;5.424;2023-02-24T05:06:43;2.03;;;1.17;;
72085;SDS011;64750;52.134;5.424;2023-02-24T05:09:11;9.07;;;1.70;;
72085;SDS011;64750;52.134;5.424;2023-02-24T05:11:46;16.97;;;5.77;;
72085;SDS011;64750;52.134;5.424;2023-02-24T05:14:14;17.58;;;6.47;;
72085;SDS011;64750;52.134;5.424;2023-02-24T05:16:43;10.40;;;4.20;;
72085;SDS011;64750;52.134;5.424;2023-02-24T05:19:12;5.78;;;3.67;;
72085;SDS011;64750;52.134;5.424;2023-02-24T05:21:59;7.82;;;2.30;;
72085;SDS011;64750;52.134;5.424;2023-02-24T05:24:28;9.23;;;1.80;;
72085;SDS011;64750;52.134;5.424;2023-02-24T05:26:56;5.78;;;1.92;;
72085;SDS011;64750;52.134;5.424;2023-02-24T05:29:28;6.65;;;1.40;;
72085;SDS011;64750;52.134;5.424;2023-02-24T05:31:58;5.32;;;1.40;;
72085;SDS011;64750;52.134;5.424;2023-02-24T05:34:26;9.30;;;1.65;;
72085;SDS011;64750;52.134;5.424;2023-02-24T05:36:56;6.50;;;1.40;;
72085;SDS011;64750;52.134;5.424;2023-02-24T05:39:24;5.20;;;1.48;;
72085;SDS011;64750;52.134;5.424;2023-02-24T05:41:52;6.45;;;1.30;;
72085;SDS011;64750;52.134;5.424;2023-02-24T05:44:20;2.05;;;1.00;;
72085;SDS011;64750;52.134;5.424;2023-02-24T05:46:50;10.02;;;1.38;;
72085;SDS011;64750;52.134;5.424;2023-02-24T05:49:25;6.57;;;0.97;;
72085;SDS011;64750;52.134;5.424;2023-02-24T05:51:55;2.13;;;1.00;;
72085;SDS011;64750;52.134;5.424;2023-02-24T05:54:26;5.15;;;1.70;;
72085;SDS011;64750;52.134;5.424;2023-02-24T05:57:02;5.53;;;1.30;;
72085;SDS011;64750;52.134;5.424;2023-02-24T05:59:38;5.80;;;1.38;;
72085;SDS011;64750;52.134;5.424;2023-02-24T06:02:07;5.10;;;1.30;;
72085;SDS011;64750;52.134;5.424;2023-02-24T06:04:40;2.35;;;0.88;;
72085;SDS011;64750;52.134;5.424;2023-02-24T06:07:20;6.95;;;1.10;;
72085;SDS011;64750;52.134;5.424;2023-02-24T06:09:51;5.10;;;0.98;;
72085;SDS011;64750;52.134;5.424;2023-02-24T06:12:20;7.03;;;0.90;;
72085;SDS011;64750;52.134;5.424;2023-02-24T06:14:47;5.40;;;1.07;;
72085;SDS011;64750;52.134;5.424;2023-02-24T06:17:15;7.38;;;1.85;;
72085;SDS011;64750;52.134;5.424;2023-02-24T06:19:42;3.40;;;1.40;;
72085;SDS011;64750;52.134;5.424;2023-02-24T06:22:13;5.25;;;1.13;;
72085;SDS011;64750;52.134;5.424;2023-02-24T06:24:40;4.18;;;1.00;;
72085;SDS011;64750;52.134;5.424;2023-02-24T06:27:13;6.60;;;1.07;;
72085;SDS011;64750;52.134;5.424;2023-02-24T06:29:48;6.57;;;1.63;;
72085;SDS011;64750;52.134;5.424;2023-02-24T06:32:16;3.78;;;1.00;;
72085;SDS011;64750;52.134;5.424;2023-02-24T06:34:44;1.92;;;1.00;;
72085;SDS011;64750;52.134;5.424;2023-02-24T06:37:12;10.48;;;1.02;;
72085;SDS011;64750;52.134;5.424;2023-02-24T06:39:40;3.63;;;1.13;;
72085;SDS011;64750;52.134;5.424;2023-02-24T06:42:07;3.25;;;1.02;;
72085;SDS011;64750;52.134;5.424;2023-02-24T06:44:36;5.38;;;1.58;;
72085;SDS011;64750;52.134;5.424;2023-02-24T06:47:04;6.97;;;1.33;;
72085;SDS011;64750;52.134;5.424;2023-02-24T06:49:32;8.15;;;1.48;;
72085;SDS011;64750;52.134;5.424;2023-02-24T06:51:59;6.13;;;1.73;;
72085;SDS011;64750;52.134;5.424;2023-02-24T06:54:26;4.90;;;1.20;;
72085;SDS011;64750;52.134;5.424;2023-02-24T06:56:57;10.13;;;1.15;;
72085;SDS011;64750;52.134;5.424;2023-02-24T06:59:24;6.35;;;1.45;;
72085;SDS011;64750;52.134;5.424;2023-02-24T07:01:57;4.38;;;1.42;;
72085;SDS011;64750;52.134;5.424;2023-02-24T07:04:24;6.93;;;1.47;;
72085;SDS011;64750;52.134;5.424;2023-02-24T07:06:57;4.30;;;1.23;;
72085;SDS011;64750;52.134;5.424;2023-02-24T07:09:28;6.72;;;2.50;;
72085;SDS011;64750;52.134;5.424;2023-02-24T07:11:56;2.28;;;1.33;;
72085;SDS011;64750;52.134;5.424;2023-02-24T07:14:24;4.45;;;1.60;;
72085;SDS011;64750;52.134;5.424;2023-02-24T07:16:52;2.83;;;1.50;;
72085;SDS011;64750;52.134;5.424;2023-02-24T07:19:24;4.60;;;1.90;;
72085;SDS011;64750;52.134;5.424;2023-02-24T07:21:55;5.43;;;1.42;;
72085;SDS011;64750;52.134;5.424;2023-02-24T07:24:29;4.22;;;1.35;;
72085;SDS011;64750;52.134;5.424;2023-02-24T07:27:05;5.32;;;1.63;;
72085;SDS011;64750;52.134;5.424;2023-02-24T07:29:32;8.10;;;1.20;;
72085;SDS011;64750;52.134;5.424;2023-02-24T07:32:00;6.97;;;1.33;;
72085;SDS011;64750;52.134;5.424;2023-02-24T07:34:31;5.15;;;1.52;;
72085;SDS011;64750;52.134;5.424;2023-02-24T07:36:58;5.18;;;1.63;;
72085;SDS011;64750;52.134;5.424;2023-02-24T07:39:27;5.28;;;1.20;;
72085;SDS011;64750;52.134;5.424;2023-02-24T07:41:54;5.47;;;1.50;;
72085;SDS011;64750;52.134;5.424;2023-02-24T07:44:21;3.58;;;1.30;;
72085;SDS011;64750;52.134;5.424;2023-02-24T07:46:49;2.30;;;1.05;;
72085;SDS011;64750;52.134;5.424;2023-02-24T07:49:20;6.07;;;1.20;;
72085;SDS011;64750;52.134;5.424;2023-02-24T07:51:51;2.83;;;1.35;;
72085;SDS011;64750;52.134;5.424;2023-02-24T07:54:23;5.70;;;1.60;;
72085;SDS011;64750;52.134;5.424;2023-02-24T07:56:50;5.00;;;1.15;;
72085;SDS011;64750;52.134;5.424;2023-02-24T07:59:25;8.70;;;2.55;;
72085;SDS011;64750;52.134;5.424;2023-02-24T08:01:53;4.75;;;1.13;;
72085;SDS011;64750;52.134;5.424;2023-02-24T08:04:27;3.97;;;0.77;;
72085;SDS011;64750;52.134;5.424;2023-02-24T08:06:55;4.40;;;1.20;;
72085;SDS011;64750;52.134;5.424;2023-02-24T08:09:28;5.10;;;1.27;;
72085;SDS011;64750;52.134;5.424;2023-02-24T08:12:11;3.42;;;0.80;;
72085;SDS011;64750;52.134;5.424;2023-02-24T08:14:48;3.97;;;1.10;;
72085;SDS011;64750;52.134;5.424;2023-02-24T08:17:21;4.15;;;0.73;;
72085;SDS011;64750;52.134;5.424;2023-02-24T08:19:52;1.43;;;0.80;;
72085;SDS011;64750;52.134;5.424;2023-02-24T08:22:41;2.33;;;0.90;;
72085;SDS011;64750;52.134;5.424;2023-02-24T08:25:24;4.85;;;1.00;;
72085;SDS011;64750;52.134;5.424;2023-02-24T08:28:01;1.50;;;1.00;;
72085;SDS011;64750;52.134;5.424;2023-02-24T08:30:35;4.30;;;1.20;;
72085;SDS011;64750;52.134;5.424;2023-02-24T08:33:08;8.60;;;1.30;;
72085;SDS011;64750;52.134;5.424;2023-02-24T08:35:37;5.22;;;1.10;;
72085;SDS011;64750;52.134;5.424;2023-02-24T08:38:11;4.97;;;1.23;;
72085;SDS011;64750;52.134;5.424;2023-02-24T08:40:42;7.13;;;1.08;;
72085;SDS011;64750;52.134;5.424;2023-02-24T08:48:45;4.32;;;1.00;;
72085;SDS011;64750;52.134;5.424;2023-02-24T08:51:38;6.97;;;1.42;;
72085;SDS011;64750;52.134;5.424;2023-02-24T08:54:10;5.30;;;1.45;;
72085;SDS011;64750;52.134;5.424;2023-02-24T08:56:53;3.63;;;1.67;;
72085;SDS011;64750;52.134;5.424;2023-02-24T08:59:22;7.27;;;1.70;;
72085;SDS011;64750;52.134;5.424;2023-02-24T09:02:05;5.93;;;1.27;;
72085;SDS011;64750;52.134;5.424;2023-02-24T09:04:44;9.77;;;1.70;;
72085;SDS011;64750;52.134;5.424;2023-02-24T09:07:15;9.68;;;1.63;;
72085;SDS011;64750;52.134;5.424;2023-02-24T09:09:44;5.50;;;1.25;;
72085;SDS011;64750;52.134;5.424;2023-02-24T09:12:10;3.23;;;1.00;;
72085;SDS011;64750;52.134;5.424;2023-02-24T09:14:50;5.80;;;1.45;;
72085;SDS011;64750;52.134;5.424;2023-02-24T09:17:21;3.42;;;1.10;;
72085;SDS011;64750;52.134;5.424;2023-02-24T09:20:11;6.15;;;1.13;;
72085;SDS011;64750;52.134;5.424;2023-02-24T09:22:51;3.38;;;1.48;;
72085;SDS011;64750;52.134;5.424;2023-02-24T09:25:23;5.03;;;1.50;;
72085;SDS011;64750;52.134;5.424;2023-02-24T09:28:09;4.55;;;1.05;;
72085;SDS011;64750;52.134;5.424;2023-02-24T09:30:44;7.28;;;1.67;;
72085;SDS011;64750;52.134;5.424;2023-02-24T09:33:20;6.65;;;1.13;;
72085;SDS011;64750;52.134;5.424;2023-02-24T09:38:28;5.73;;;1.93;;
72085;SDS011;64750;52.134;5.424;2023-02-24T09:41:18;4.40;;;1.40;;
72085;SDS011;64750;52.134;5.424;2023-02-24T09:44:11;9.40;;;1.25;;
72085;SDS011;64750;52.134;5.424;2023-02-24T09:46:47;9.65;;;1.70;;
72085;SDS011;64750;52.134;5.424;2023-02-24T09:49:21;9.05;;;2.03;;
72085;SDS011;64750;52.134;5.424;2023-02-24T09:51:52;5.27;;;1.43;;
72085;SDS011;64750;52.134;5.424;2023-02-24T09:54:29;7.22;;;1.63;;
72085;SDS011;64750;52.134;5.424;2023-02-24T09:57:02;7.35;;;1.90;;
72085;SDS011;64750;52.134;5.424;2023-02-24T10:05:54;6.47;;;2.00;;
72085;SDS011;64750;52.134;5.424;2023-02-24T10:08:35;4.75;;;1.98;;
72085;SDS011;64750;52.134;5.424;2023-02-24T10:11:06;9.98;;;1.65;;
72085;SDS011;64750;52.134;5.424;2023-02-24T10:13:39;9.40;;;1.45;;
72085;SDS011;64750;52.134;5.424;2023-02-24T10:16:14;4.70;;;1.77;;
72085;SDS011;64750;52.134;5.424;2023-02-24T10:18:50;9.37;;;1.87;;
72085;SDS011;64750;52.134;5.424;2023-02-24T10:21:38;5.43;;;2.22;;
72085;SDS011;64750;52.134;5.424;2023-02-24T10:24:41;6.55;;;2.13;;
72085;SDS011;64750;52.134;5.424;2023-02-24T10:27:14;7.53;;;2.33;;
72085;SDS011;64750;52.134;5.424;2023-02-24T10:30:04;4.60;;;2.17;;
72085;SDS011;64750;52.134;5.424;2023-02-24T10:32:52;3.63;;;1.50;;
72085;SDS011;64750;52.134;5.424;2023-02-24T10:35:25;4.05;;;1.67;;
72085;SDS011;64750;52.134;5.424;2023-02-24T10:37:59;4.93;;;1.58;;
72085;SDS011;64750;52.134;5.424;2023-02-24T10:40:41;5.38;;;2.22;;
72085;SDS011;64750;52.134;5.424;2023-02-24T10:43:16;5.28;;;1.83;;
72085;SDS011;64750;52.134;5.424;2023-02-24T10:45:45;9.40;;;1.83;;
72085;SDS011;64750;52.134;5.424;2023-02-24T10:48:19;2.03;;;1.48;;
72085;SDS011;64750;52.134;5.424;2023-02-24T10:51:13;7.38;;;1.95;;
72085;SDS011;64750;52.134;5.424;2023-02-24T10:54:02;4.13;;;1.67;;
72085;SDS011;64750;52.134;5.424;2023-02-24T10:56:48;4.85;;;1.75;;
72085;SDS011;64750;52.134;5.424;2023-02-24T10:59:41;2.47;;;1.77;;
72085;SDS011;64750;52.134;5.424;2023-02-24T11:02:34;1.77;;;1.42;;
72085;SDS011;64750;52.134;5.424;2023-02-24T11:05:25;4.22;;;1.30;;
72085;SDS011;64750;52.134;5.424;2023-02-24T11:08:13;4.03;;;1.80;;
72085;SDS011;64750;52.134;5.424;2023-02-24T11:11:14;4.47;;;2.13;;
72085;SDS011;64750;52.134;5.424;2023-02-24T11:13:56;3.17;;;1.37;;
72085;SDS011;64750;52.134;5.424;2023-02-24T11:16:49;2.10;;;1.27;;
72085;SDS011;64750;52.134;5.424;2023-02-24T11:19:40;4.07;;;2.08;;
72085;SDS011;64750;52.134;5.424;2023-02-24T11:22:13;4.97;;;1.63;;
72085;SDS011;64750;52.134;5.424;2023-02-24T11:24:42;5.03;;;1.75;;
72085;SDS011;64750;52.134;5.424;2023-02-24T11:27:10;1.90;;;1.80;;
72085;SDS011;64750;52.134;5.424;2023-02-24T11:29:46;2.97;;;1.70;;
72085;SDS011;64750;52.134;5.424;2023-02-24T11:35:18;2.85;;;1.65;;
72085;SDS011;64750;52.134;5.424;2023-02-24T11:38:03;3.67;;;1.85;;
72085;SDS011;64750;52.134;5.424;2023-02-24T11:43:37;4.18;;;1.80;;
72085;SDS011;64750;52.134;5.424;2023-02-24T11:46:16;2.42;;;2.22;;
72085;SDS011;64750;52.134;5.424;2023-02-24T11:48:51;5.65;;;1.65;;
72085;SDS011;64750;52.134;5.424;2023-02-24T11:51:25;3.00;;;1.92;;
72085;SDS011;64750;52.134;5.424;2023-02-24T11:56:30;3.28;;;1.67;;
72085;SDS011;64750;52.134;5.424;2023-02-24T11:59:00;3.88;;;2.00;;
72085;SDS011;64750;52.134;5.424;2023-02-24T12:01:49;4.05;;;2.05;;
72085;SDS011;64750;52.134;5.424;2023-02-24T12:09:56;4.47;;;2.08;;
72085;SDS011;64750;52.134;5.424;2023-02-24T12:12:58;5.10;;;2.38;;
72085;SDS011;64750;52.134;5.424;2023-02-24T12:15:49;3.97;;;1.80;;
72085;SDS011;64750;52.134;5.424;2023-02-24T12:18:33;7.97;;;2.55;;
72085;SDS011;64750;52.134;5.424;2023-02-24T12:23:35;5.38;;;2.70;;
72085;SDS011;64750;52.134;5.424;2023-02-24T12:29:33;5.97;;;2.58;;
72085;SDS011;64750;52.134;5.424;2023-02-24T12:35:18;3.70;;;2.53;;
72085;SDS011;64750;52.134;5.424;2023-02-24T12:37:56;8.38;;;2.35;;
72085;SDS011;64750;52.134;5.424;2023-02-24T12:45:47;13.30;;;2.58;;
72085;SDS011;64750;52.134;5.424;2023-02-24T12:48:31;16.90;;;2.10;;
72085;SDS011;64750;52.134;5.424;2023-02-24T12:51:06;8.38;;;2.45;;
72085;SDS011;64750;52.134;5.424;2023-02-24T12:53:47;19.02;;;2.92;;
72085;SDS011;64750;52.134;5.424;2023-02-24T12:56:26;11.52;;;2.25;;
72085;SDS011;64750;52.134;5.424;2023-02-24T12:58:58;12.15;;;2.53;;
72085;SDS011;64750;52.134;5.424;2023-02-24T13:02:04;14.10;;;2.20;;
72085;SDS011;64750;52.134;5.424;2023-02-24T13:15:54;9.33;;;2.17;;
72085;SDS011;64750;52.134;5.424;2023-02-24T13:18:33;24.23;;;2.95;;
72085;SDS011;64750;52.134;5.424;2023-02-24T13:21:05;17.85;;;2.10;;
72085;SDS011;64750;52.134;5.424;2023-02-24T13:23:32;17.40;;;2.83;;
72085;SDS011;64750;52.134;5.424;2023-02-24T13:25:59;13.73;;;2.10;;
72085;SDS011;64750;52.134;5.424;2023-02-24T13:28:28;20.27;;;2.07;;
72085;SDS011;64750;52.134;5.424;2023-02-24T13:33:29;9.65;;;2.25;;
72085;SDS011;64750;52.134;5.424;2023-02-24T13:36:20;18.70;;;2.15;;
72085;SDS011;64750;52.134;5.424;2023-02-24T13:44:02;22.17;;;2.15;;
72085;SDS011;64750;52.134;5.424;2023-02-24T13:49:35;10.70;;;1.25;;
72085;SDS011;64750;52.134;5.424;2023-02-24T13:58:37;3.65;;;0.70;;
72085;SDS011;64750;52.134;5.424;2023-02-24T14:01:12;5.70;;;0.85;;
72085;SDS011;64750;52.134;5.424;2023-02-24T14:03:43;9.57;;;1.10;;
72085;SDS011;64750;52.134;5.424;2023-02-24T14:06:26;6.70;;;1.17;;
72085;SDS011;64750;52.134;5.424;2023-02-24T14:08:56;6.47;;;0.80;;
72085;SDS011;64750;52.134;5.424;2023-02-24T14:11:27;1.98;;;0.85;;
72085;SDS011;64750;52.134;5.424;2023-02-24T14:13:56;5.13;;;0.57;;
72085;SDS011;64750;52.134;5.424;2023-02-24T14:16:25;5.75;;;0.88;;
72085;SDS011;64750;52.134;5.424;2023-02-24T14:18:56;5.35;;;0.65;;
72085;SDS011;64750;52.134;5.424;2023-02-24T14:21:26;2.97;;;1.10;;
72085;SDS011;64750;52.134;5.424;2023-02-24T14:24:02;7.20;;;1.20;;
72085;SDS011;64750;52.134;5.424;2023-02-24T14:26:49;15.95;;;1.17;;
72085;SDS011;64750;52.134;5.424;2023-02-24T14:29:27;7.63;;;1.63;;
72085;SDS011;64750;52.134;5.424;2023-02-24T14:31:57;6.32;;;1.50;;
72085;SDS011;64750;52.134;5.424;2023-02-24T14:34:25;10.63;;;1.43;;
72085;SDS011;64750;52.134;5.424;2023-02-24T14:36:54;10.20;;;1.48;;
72085;SDS011;64750;52.134;5.424;2023-02-24T14:39:23;8.55;;;1.35;;
72085;SDS011;64750;52.134;5.424;2023-02-24T14:42:02;10.10;;;1.25;;
72085;SDS011;64750;52.134;5.424;2023-02-24T14:44:31;7.07;;;1.20;;
72085;SDS011;64750;52.134;5.424;2023-02-24T14:47:01;8.30;;;1.63;;
72085;SDS011;64750;52.134;5.424;2023-02-24T14:49:32;8.13;;;1.58;;
72085;SDS011;64750;52.134;5.424;2023-02-24T14:52:18;11.68;;;1.30;;
72085;SDS011;64750;52.134;5.424;2023-02-24T14:54:58;5.25;;;1.20;;
72085;SDS011;64750;52.134;5.424;2023-02-24T14:57:29;8.82;;;1.08;;
72085;SDS011;64750;52.134;5.424;2023-02-24T15:00:03;5.90;;;1.23;;
72085;SDS011;64750;52.134;5.424;2023-02-24T15:02:37;4.97;;;0.70;;
72085;SDS011;64750;52.134;5.424;2023-02-24T15:05:06;6.80;;;1.70;;
72085;SDS011;64750;52.134;5.424;2023-02-24T15:07:35;8.57;;;0.85;;
72085;SDS011;64750;52.134;5.424;2023-02-24T15:10:02;7.82;;;1.15;;
72085;SDS011;64750;52.134;5.424;2023-02-24T15:12:31;6.77;;;0.87;;
72085;SDS011;64750;52.134;5.424;2023-02-24T15:17:48;4.70;;;1.00;;
72085;SDS011;64750;52.134;5.424;2023-02-24T15:20:30;3.88;;;0.82;;
72085;SDS011;64750;52.134;5.424;2023-02-24T15:22:58;4.50;;;0.57;;
72085;SDS011;64750;52.134;5.424;2023-02-24T15:33:27;6.47;;;0.60;;
72085;SDS011;64750;52.134;5.424;2023-02-24T15:35:58;3.33;;;0.75;;
72085;SDS011;64750;52.134;5.424;2023-02-24T15:41:00;3.33;;;0.50;;
72085;SDS011;64750;52.134;5.424;2023-02-24T15:48:44;3.10;;;0.80;;
72085;SDS011;64750;52.134;5.424;2023-02-24T15:51:17;3.03;;;1.17;;
72085;SDS011;64750;52.134;5.424;2023-02-24T15:54:04;2.72;;;0.85;;
72085;SDS011;64750;52.134;5.424;2023-02-24T15:56:38;6.88;;;0.60;;
72085;SDS011;64750;52.134;5.424;2023-02-24T15:59:06;3.35;;;1.13;;
72085;SDS011;64750;52.134;5.424;2023-02-24T16:01:32;6.97;;;0.57;;
72085;SDS011;64750;52.134;5.424;2023-02-24T16:03:59;2.00;;;0.47;;
72085;SDS011;64750;52.134;5.424;2023-02-24T16:06:26;7.72;;;0.63;;
72085;SDS011;64750;52.134;5.424;2023-02-24T16:08:53;5.63;;;0.77;;
72085;SDS011;64750;52.134;5.424;2023-02-24T16:11:25;2.97;;;0.88;;
72085;SDS011;64750;52.134;5.424;2023-02-24T16:13:54;2.00;;;0.50;;
72085;SDS011;64750;52.134;5.424;2023-02-24T16:16:23;5.63;;;0.70;;
72085;SDS011;64750;52.134;5.424;2023-02-24T16:18:51;7.30;;;0.70;;
72085;SDS011;64750;52.134;5.424;2023-02-24T16:21:18;10.75;;;1.08;;
72085;SDS011;64750;52.134;5.424;2023-02-24T16:23:44;4.82;;;1.00;;
72085;SDS011;64750;52.134;5.424;2023-02-24T16:26:15;5.07;;;0.98;;
72085;SDS011;64750;52.134;5.424;2023-02-24T16:28:48;7.20;;;1.13;;
72085;SDS011;64750;52.134;5.424;2023-02-24T16:31:19;7.28;;;1.17;;
72085;SDS011;64750;52.134;5.424;2023-02-24T16:33:46;7.53;;;0.70;;
72085;SDS011;64750;52.134;5.424;2023-02-24T16:36:21;5.03;;;1.17;;
72085;SDS011;64750;52.134;5.424;2023-02-24T16:38:49;7.78;;;0.90;;
72085;SDS011;64750;52.134;5.424;2023-02-24T16:41:17;5.30;;;0.57;;
72085;SDS011;64750;52.134;5.424;2023-02-24T16:43:43;7.20;;;0.93;;
72085;SDS011;64750;52.134;5.424;2023-02-24T16:46:14;7.80;;;1.30;;
72085;SDS011;64750;52.134;5.424;2023-02-24T16:48:43;4.72;;;0.80;;
72085;SDS011;64750;52.134;5.424;2023-02-24T16:51:12;6.97;;;1.00;;
72085;SDS011;64750;52.134;5.424;2023-02-24T16:53:39;5.47;;;0.87;;
72085;SDS011;64750;52.134;5.424;2023-02-24T16:56:06;3.50;;;0.73;;
72085;SDS011;64750;52.134;5.424;2023-02-24T16:58:33;9.13;;;1.00;;
72085;SDS011;64750;52.134;5.424;2023-02-24T17:01:00;9.57;;;1.30;;
72085;SDS011;64750;52.134;5.424;2023-02-24T17:03:30;6.78;;;1.02;;
72085;SDS011;64750;52.134;5.424;2023-02-24T17:06:02;3.97;;;1.00;;
72085;SDS011;64750;52.134;5.424;2023-02-24T17:08:29;5.35;;;1.55;;
72085;SDS011;64750;52.134;5.424;2023-02-24T17:10:55;11.63;;;2.03;;
72085;SDS011;64750;52.134;5.424;2023-02-24T17:13:21;10.85;;;1.27;;
72085;SDS011;64750;52.134;5.424;2023-02-24T17:15:49;8.88;;;1.05;;
72085;SDS011;64750;52.134;5.424;2023-02-24T17:18:20;12.13;;;1.87;;
72085;SDS011;64750;52.134;5.424;2023-02-24T17:20:48;9.80;;;1.02;;
72085;SDS011;64750;52.134;5.424;2023-02-24T17:23:15;3.63;;;0.93;;
72085;SDS011;64750;52.134;5.424;2023-02-24T17:25:41;8.55;;;1.20;;